Time;durP1;ratioP1;P1;durP2;ratioP2;P2;SDS_P1;SDS_P2;PMS_P1;PMS_P2;Temp;Humidity;BMP_temperature;BMP_pressure;BME280_temperature;BME280_humidity;BME280_pressure;Samples;Min_cycle;Max_cycle;Signal;HPM_P1;HPM_P2
2021/07/05 00:00:41;;;;;;;;;;;;;;;;;;5029728;28;19919;-47
2021/07/05 00:03:06;;;;;;;;;;;;;;;;;;5027686;28;19909;-47
2021/07/05 00:05:32;;;;;;;;;;;;;;;;;;5028353;28;19913;-46
2021/07/05 00:07:57;;;;;;;;;;;;;;;;;;4965763;28;20329;-48
2021/07/05 00:10:22;;;;;;;;;;;;;;;;;;5028757;28;20440;-48
2021/07/05 00:12:48;;;;;;;;;;;;;;;;;;5028024;28;19909;-47
2021/07/05 00:15:13;;;;;;;;;;;;;;;;;;5028848;28;20012;-47
2021/07/05 00:17:38;;;;;;;;;;;;;;;;;;5028913;28;20901;-47
2021/07/05 00:20:03;;;;;;;;;;;;;;;;;;5028026;28;19920;-47
2021/07/05 00:22:29;;;;;;;;;;;;;;;;;;5028491;28;19913;-48
2021/07/05 00:24:54;;;;;;;;;;;;;;;;;;5027958;28;20388;-49
2021/07/05 00:27:19;;;;;;;;;;;;;;;;;;5048833;23;19925;-47
2021/07/05 00:29:44;;;;;;;;;;;;;;;;;;5027435;28;20121;-48
2021/07/05 00:32:09;;;;;;;;;;;;;;;;;;5028827;28;19916;-47
2021/07/05 00:34:34;;;;;;;;;;;;;;;;;;5028540;28;19909;-47
2021/07/05 00:36:59;;;;;;;;;;;;;;;;;;5021854;28;19925;-47
2021/07/05 00:39:24;;;;;;;;;;;;;;;;;;5018910;28;20020;-46
2021/07/05 00:41:49;;;;;;;;;;;;;;;;;;5015360;28;19909;-47
2021/07/05 00:44:14;;;;;;;;;;;;;;;;;;5017324;28;20405;-48
2021/07/05 00:46:39;;;;;;;;;;;;;;;;;;5018826;28;19935;-47
2021/07/05 00:49:05;;;;;;;;;;;;;;;;;;5016366;28;19909;-46
2021/07/05 00:51:30;;;;;;;;;;;;;;;;;;5019120;28;19914;-47
2021/07/05 00:53:55;;;;;;;;;;;;;;;;;;5018523;28;19917;-48
2021/07/05 00:56:20;;;;;;;;;;;;;;;;;;5011652;28;19914;-47
2021/07/05 00:58:45;;;;;;;;;;;;;;;;;;5015217;28;19920;-46
2021/07/05 01:01:10;;;;;;;;;;;;;;;;;;5013354;28;20341;-47
2021/07/05 01:03:35;;;;;;;;;;;;;;;;;;5011131;28;19921;-46
2021/07/05 01:06:00;;;;;;;;;;;;;;;;;;5015289;28;19998;-47
2021/07/05 01:08:25;;;;;;;;;;;;;;;;;;5019907;28;20364;-47
2021/07/05 01:10:50;;;;;;;;;;;;;;;;;;5018317;28;19914;-47
2021/07/05 01:13:16;;;;;;;;;;;;;;;;;;5019495;28;19921;-47
2021/07/05 01:15:41;;;;;;;;;;;;;;;;;;5016009;28;19910;-48
2021/07/05 01:18:06;;;;;;;;;;;;;;;;;;5015825;28;20013;-47
2021/07/05 01:20:31;;;;;;;;;;;;;;;;;;5017236;28;20414;-47
2021/07/05 01:22:56;;;;;;;;;;;;;;;;;;5021521;28;19948;-47
2021/07/05 01:25:21;;;;;;;;;;;;;;;;;;5021221;28;20003;-47
2021/07/05 01:27:46;;;;;;;;;;;;;;;;;;5015406;28;20276;-47
2021/07/05 01:30:11;;;;;;;;;;;;;;;;;;5021983;28;20190;-46
2021/07/05 01:32:36;;;;;;;;;;;;;;;;;;5022380;28;19918;-47
2021/07/05 01:35:01;;;;;;;;;;;;;;;;;;5012089;28;19913;-47
2021/07/05 01:37:27;;;;;;;;;;;;;;;;;;5019083;28;20280;-47
2021/07/05 01:39:52;;;;;;;;;;;;;;;;;;5020833;28;20297;-46
2021/07/05 01:42:19;;;;;;;;;;;;;;;;;;5023301;28;19949;-46
2021/07/05 01:44:44;;;;;;;;;;;;;;;;;;5021107;28;19914;-47
2021/07/05 01:47:09;;;;;;;;;;;;;;;;;;5017952;28;19995;-47
2021/07/05 01:49:34;;;;;;;;;;;;;;;;;;5018404;28;19914;-46
2021/07/05 01:52:00;;;;;;;;;;;;;;;;;;5022832;28;20342;-47
2021/07/05 01:54:25;;;;;;;;;;;;;;;;;;5021267;28;19913;-47
2021/07/05 01:56:50;;;;;;;;;;;;;;;;;;5020059;28;19972;-47
2021/07/05 01:59:15;;;;;;;;;;;;;;;;;;5021895;28;19920;-47
2021/07/05 02:01:40;;;;;;;;;;;;;;;;;;5022691;28;20433;-47
2021/07/05 02:04:05;;;;;;;;;;;;;;;;;;5016693;28;19917;-47
2021/07/05 02:06:30;;;;;;;;;;;;;;;;;;5015496;28;19979;-47
2021/07/05 02:08:55;;;;;;;;;;;;;;;;;;5017412;28;19913;-45
2021/07/05 02:11:20;;;;;;;;;;;;;;;;;;5017162;28;19967;-46
2021/07/05 02:13:46;;;;;;;;;;;;;;;;;;5022295;28;19909;-47
2021/07/05 02:16:11;;;;;;;;;;;;;;;;;;5018812;28;19925;-47
2021/07/05 02:18:36;;;;;;;;;;;;;;;;;;5019830;28;20324;-47
2021/07/05 02:21:01;;;;;;;;;;;;;;;;;;5021082;28;19914;-48
2021/07/05 02:23:26;;;;;;;;;;;;;;;;;;5019951;28;19921;-47
2021/07/05 02:25:51;;;;;;;;;;;;;;;;;;5018707;28;19916;-47
2021/07/05 02:28:16;;;;;;;;;;;;;;;;;;5019531;28;19921;-47
2021/07/05 02:30:41;;;;;;;;;;;;;;;;;;5020730;28;19913;-47
2021/07/05 02:33:06;;;;;;;;;;;;;;;;;;5016143;28;19926;-46
2021/07/05 02:35:32;;;;;;;;;;;;;;;;;;5020385;28;20381;-47
2021/07/05 02:37:58;;;;;;;;;;;;;;;;;;5017614;28;19917;-47
2021/07/05 02:40:23;;;;;;;;;;;;;;;;;;5020861;28;19935;-47
2021/07/05 02:42:48;;;;;;;;;;;;;;;;;;5018238;28;19913;-47
2021/07/05 02:45:13;;;;;;;;;;;;;;;;;;5021736;28;20258;-47
2021/07/05 02:47:39;;;;;;;;;;;;;;;;;;5018374;28;20380;-47
2021/07/05 02:50:04;;;;;;;;;;;;;;;;;;5020199;28;19920;-47
2021/07/05 02:52:29;;;;;;;;;;;;;;;;;;5018296;28;19921;-47
2021/07/05 02:54:54;;;;;;;;;;;;;;;;;;5020490;28;19941;-46
2021/07/05 02:57:31;;;;;;;;;;;;;;;;;;5014936;28;20404;-46
2021/07/05 03:00:00;;;;;;;;;;;;;;;;;;5015782;28;19917;-47
2021/07/05 03:02:25;;;;;;;;;;;;;;;;;;5016308;28;20413;-48
2021/07/05 03:04:50;;;;;;;;;;;;;;;;;;5020289;28;20344;-47
2021/07/05 03:07:17;;;;;;;;;;;;;;;;;;5016581;28;20385;-47
2021/07/05 03:09:42;;;;;;;;;;;;;;;;;;5019917;28;19916;-48
2021/07/05 03:12:07;;;;;;;;;;;;;;;;;;5020799;28;19914;-47
2021/07/05 03:14:32;;;;;;;;;;;;;;;;;;5017544;28;19963;-47
2021/07/05 03:16:57;;;;;;;;;;;;;;;;;;5019931;28;19916;-46
2021/07/05 03:19:22;;;;;;;;;;;;;;;;;;5017415;28;20455;-47
2021/07/05 03:21:47;;;;;;;;;;;;;;;;;;5020796;28;19913;-46
2021/07/05 03:24:12;;;;;;;;;;;;;;;;;;5017447;28;19959;-47
2021/07/05 03:26:37;;;;;;;;;;;;;;;;;;5021491;28;19917;-47
2021/07/05 03:29:02;;;;;;;;;;;;;;;;;;5017917;28;19918;-47
2021/07/05 03:31:27;;;;;;;;;;;;;;;;;;5020605;28;19917;-47
2021/07/05 03:33:53;;;;;;;;;;;;;;;;;;5018124;28;19913;-46
2021/07/05 03:36:18;;;;;;;;;;;;;;;;;;5020880;28;19936;-47
2021/07/05 03:38:43;;;;;;;;;;;;;;;;;;5018035;28;20401;-47
2021/07/05 03:41:08;;;;;;;;;;;;;;;;;;5019826;28;19962;-47
2021/07/05 03:43:33;;;;;;;;;;;;;;;;;;5017074;28;20072;-48
2021/07/05 03:45:58;;;;;;;;;;;;;;;;;;5019665;28;19924;-47
2021/07/05 03:48:23;;;;;;;;;;;;;;;;;;5018227;28;19925;-47
2021/07/05 03:50:48;;;;;;;;;;;;;;;;;;5019813;28;19940;-47
2021/07/05 03:53:14;;;;;;;;;;;;;;;;;;5020198;28;19923;-47
2021/07/05 03:55:39;;;;;;;;;;;;;;;;;;5019537;28;19909;-47
2021/07/05 03:58:04;;;;;;;;;;;;;;;;;;5016884;28;19925;-46
2021/07/05 04:00:29;;;;;;;;;;;;;;;;;;5019374;28;20149;-47
2021/07/05 04:02:54;;;;;;;;;;;;;;;;;;5015396;28;19944;-47
2021/07/05 04:05:19;;;;;;;;;;;;;;;;;;5014696;28;19920;-46
2021/07/05 04:07:44;;;;;;;;;;;;;;;;;;5017945;28;19921;-47
2021/07/05 04:10:10;;;;;;;;;;;;;;;;;;5017113;28;20373;-47
2021/07/05 04:12:35;;;;;;;;;;;;;;;;;;5018731;28;19992;-46
2021/07/05 04:15:00;;;;;;;;;;;;;;;;;;5018402;28;19944;-48
2021/07/05 04:17:25;;;;;;;;;;;;;;;;;;5019490;28;19937;-47
2021/07/05 04:19:50;;;;;;;;;;;;;;;;;;5018395;28;19913;-47
2021/07/05 04:22:15;;;;;;;;;;;;;;;;;;5020198;28;20327;-47
2021/07/05 04:24:40;;;;;;;;;;;;;;;;;;5016627;28;19917;-47
2021/07/05 04:27:06;;;;;;;;;;;;;;;;;;5020614;28;20392;-47
2021/07/05 04:29:31;;;;;;;;;;;;;;;;;;5017104;28;19916;-47
2021/07/05 04:31:56;;;;;;;;;;;;;;;;;;5017894;28;19955;-45
2021/07/05 04:34:21;;;;;;;;;;;;;;;;;;5016326;28;19917;-47
2021/07/05 04:36:46;;;;;;;;;;;;;;;;;;5018071;28;20368;-48
2021/07/05 04:39:11;;;;;;;;;;;;;;;;;;5018785;28;20490;-47
2021/07/05 04:41:36;;;;;;;;;;;;;;;;;;5017250;28;19960;-46
2021/07/05 04:44:01;;;;;;;;;;;;;;;;;;5013895;28;20455;-47
2021/07/05 04:46:26;;;;;;;;;;;;;;;;;;5018977;28;20352;-48
2021/07/05 04:48:54;;;;;;;;;;;;;;;;;;5016191;28;20361;-47
2021/07/05 04:51:20;;;;;;;;;;;;;;;;;;5017097;28;20273;-47
2021/07/05 04:53:45;;;;;;;;;;;;;;;;;;5017232;28;20434;-46
2021/07/05 04:56:10;;;;;;;;;;;;;;;;;;5021552;28;19913;-47
2021/07/05 04:58:35;;;;;;;;;;;;;;;;;;5019728;28;19983;-46
2021/07/05 05:01:00;;;;;;;;;;;;;;;;;;5020563;28;20261;-47
2021/07/05 05:03:25;;;;;;;;;;;;;;;;;;5021423;28;19920;-47
2021/07/05 05:05:50;;;;;;;;;;;;;;;;;;5016686;28;19914;-47
2021/07/05 05:08:15;;;;;;;;;;;;;;;;;;5023967;28;20397;-48
2021/07/05 05:10:41;;;;;;;;;;;;;;;;;;5021934;28;20000;-47
2021/07/05 05:13:06;;;;;;;;;;;;;;;;;;5023151;28;19917;-48
2021/07/05 05:15:31;;;;;;;;;;;;;;;;;;5020652;28;19953;-46
2021/07/05 05:17:56;;;;;;;;;;;;;;;;;;5019365;28;19922;-47
2021/07/05 05:20:21;;;;;;;;;;;;;;;;;;5023160;28;19983;-48
2021/07/05 05:22:46;;;;;;;;;;;;;;;;;;5020417;28;20055;-48
2021/07/05 05:25:11;;;;;;;;;;;;;;;;;;5021925;28;19962;-48
2021/07/05 05:27:36;;;;;;;;;;;;;;;;;;5020710;28;19917;-48
2021/07/05 05:30:01;;;;;;;;;;;;;;;;;;5022562;28;19913;-48
2021/07/05 05:32:26;;;;;;;;;;;;;;;;;;5021649;28;19928;-48
2021/07/05 05:34:52;;;;;;;;;;;;;;;;;;5019962;28;20377;-47
2021/07/05 05:37:17;;;;;;;;;;;;;;;;;;5020759;28;19932;-47
2021/07/05 05:39:42;;;;;;;;;;;;;;;;;;5022863;28;19909;-48
2021/07/05 05:42:07;;;;;;;;;;;;;;;;;;5019745;28;19924;-48
2021/07/05 05:44:32;;;;;;;;;;;;;;;;;;5019222;28;20221;-48
2021/07/05 05:46:57;;;;;;;;;;;;;;;;;;5019764;28;20359;-47
2021/07/05 05:49:22;;;;;;;;;;;;;;;;;;5020617;28;20431;-48
2021/07/05 05:51:48;;;;;;;;;;;;;;;;;;5021052;28;20446;-48
2021/07/05 05:54:13;;;;;;;;;;;;;;;;;;5021439;28;19916;-48
2021/07/05 05:56:40;;;;;;;;;;;;;;;;;;5021742;28;19924;-47
2021/07/05 05:59:06;;;;;;;;;;;;;;;;;;5020191;28;19913;-48
2021/07/05 06:01:31;;;;;;;;;;;;;;;;;;5018128;28;19917;-48
2021/07/05 06:03:56;;;;;;;;;;;;;;;;;;5019796;28;19967;-48
2021/07/05 06:06:21;;;;;;;;;;;;;;;;;;5017491;28;19913;-48
2021/07/05 06:08:46;;;;;;;;;;;;;;;;;;5023143;28;19917;-48
2021/07/05 06:11:11;;;;;;;;;;;;;;;;;;5020586;28;20313;-48
2021/07/05 06:13:37;;;;;;;;;;;;;;;;;;5018545;28;20362;-48
2021/07/05 06:16:02;;;;;;;;;;;;;;;;;;5020171;28;20005;-48
2021/07/05 06:18:27;;;;;;;;;;;;;;;;;;5018295;28;20425;-48
2021/07/05 06:20:52;;;;;;;;;;;;;;;;;;5022609;28;20473;-48
2021/07/05 06:23:27;;;;;;;;;;;;;;;;;;5019674;28;20408;-48
2021/07/05 06:28:27;;;;;;;;;;;;;;;;;;5032981;23;20319;-48
2021/07/05 06:30:52;;;;;;;;;;;;;;;;;;5008972;28;19909;-48
2021/07/05 06:33:17;;;;;;;;;;;;;;;;;;5010111;28;19914;-48
2021/07/05 06:35:42;;;;;;;;;;;;;;;;;;5011434;28;20000;-47
2021/07/05 06:38:07;;;;;;;;;;;;;;;;;;5024675;28;20313;-47
2021/07/05 06:40:32;;;;;;;;;;;;;;;;;;5030400;28;19916;-47
2021/07/05 06:42:57;;;;;;;;;;;;;;;;;;5027353;28;19921;-47
2021/07/05 06:45:23;;;;;;;;;;;;;;;;;;5030685;28;19913;-47
2021/07/05 06:47:48;;;;;;;;;;;;;;;;;;5026091;28;19979;-48
2021/07/05 06:50:13;;;;;;;;;;;;;;;;;;5027497;28;20003;-46
2021/07/05 06:52:38;;;;;;;;;;;;;;;;;;5030927;28;20035;-47
2021/07/05 06:55:03;;;;;;;;;;;;;;;;;;5028193;28;19919;-48
2021/07/05 06:57:34;;;;;;;;;;;;;;;;;;5028048;28;20047;-48
2021/07/05 07:00:00;;;;;;;;;;;;;;;;;;5030318;28;19920;-47
2021/07/05 07:02:25;;;;;;;;;;;;;;;;;;5030360;28;20031;-47
2021/07/05 07:04:50;;;;;;;;;;;;;;;;;;5028550;28;19920;-47
2021/07/05 07:07:15;;;;;;;;;;;;;;;;;;5027559;28;19913;-47
2021/07/05 07:09:40;;;;;;;;;;;;;;;;;;5029894;28;19920;-47
2021/07/05 07:12:05;;;;;;;;;;;;;;;;;;5030688;28;20015;-48
2021/07/05 07:14:30;;;;;;;;;;;;;;;;;;5029078;28;20356;-47
2021/07/05 07:17:04;;;;;;;;;;;;;;;;;;5028943;28;20391;-47
2021/07/05 07:19:29;;;;;;;;;;;;;;;;;;5026290;28;20308;-48
2021/07/05 07:21:54;;;;;;;;;;;;;;;;;;5030466;28;19933;-48
2021/07/05 07:24:19;;;;;;;;;;;;;;;;;;5029295;28;20365;-48
2021/07/05 07:26:44;;;;;;;;;;;;;;;;;;5030070;28;19930;-48
2021/07/05 07:29:09;;;;;;;;;;;;;;;;;;5028209;28;19913;-49
2021/07/05 07:31:34;;;;;;;;;;;;;;;;;;5029308;28;19967;-48
2021/07/05 07:34:00;;;;;;;;;;;;;;;;;;5028551;28;19921;-48
2021/07/05 07:36:26;;;;;;;;;;;;;;;;;;5028411;28;19976;-47
2021/07/05 07:38:53;;;;;;;;;;;;;;;;;;5028987;28;19909;-49
2021/07/05 07:41:22;;;;;;;;;;;;;;;;;;5028452;28;19917;-49
2021/07/05 07:43:47;;;;;;;;;;;;;;;;;;5027419;28;19913;-48
2021/07/05 07:46:12;;;;;;;;;;;;;;;;;;5029385;28;19914;-47
2021/07/05 07:48:37;;;;;;;;;;;;;;;;;;5027646;28;20304;-48
2021/07/05 07:51:02;;;;;;;;;;;;;;;;;;5028837;28;19974;-48
2021/07/05 07:53:27;;;;;;;;;;;;;;;;;;5030062;28;19979;-47
2021/07/05 07:55:52;;;;;;;;;;;;;;;;;;5019899;28;19963;-46
2021/07/05 07:58:17;;;;;;;;;;;;;;;;;;5025257;28;19917;-44
2021/07/05 08:00:43;;;;;;;;;;;;;;;;;;5019728;28;19960;-48
2021/07/05 08:03:09;;;;;;;;;;;;;;;;;;5019350;28;19987;-47
2021/07/05 08:05:35;;;;;;;;;;;;;;;;;;5027999;28;19909;-47
2021/07/05 08:08:00;;;;;;;;;;;;;;;;;;5028137;28;20435;-48
2021/07/05 08:10:25;;;;;;;;;;;;;;;;;;5025069;28;19913;-47
2021/07/05 08:12:50;;;;;;;;;;;;;;;;;;5028817;28;19932;-47
2021/07/05 08:15:15;;;;;;;;;;;;;;;;;;5027636;28;20384;-48
2021/07/05 08:17:43;;;;;;;;;;;;;;;;;;5028626;28;19914;-47
2021/07/05 08:20:08;;;;;;;;;;;;;;;;;;5023724;28;19920;-49
2021/07/05 08:22:33;;;;;;;;;;;;;;;;;;5027103;28;19913;-46
2021/07/05 08:24:59;;;;;;;;;;;;;;;;;;5021135;28;19921;-47
2021/07/05 08:27:24;;;;;;;;;;;;;;;;;;5025859;28;19928;-46
2021/07/05 08:29:49;;;;;;;;;;;;;;;;;;5024138;28;19924;-46
2021/07/05 08:32:14;;;;;;;;;;;;;;;;;;5022759;28;19936;-47
2021/07/05 08:34:39;;;;;;;;;;;;;;;;;;5018417;28;20408;-45
2021/07/05 08:37:04;;;;;;;;;;;;;;;;;;5021981;28;19917;-48
2021/07/05 08:39:29;;;;;;;;;;;;;;;;;;5022578;28;19913;-48
2021/07/05 08:41:54;;;;;;;;;;;;;;;;;;5022438;28;19920;-46
2021/07/05 08:44:19;;;;;;;;;;;;;;;;;;5026058;28;19913;-46
2021/07/05 08:52:50;;;;;;;;;;;;;;;;;;5007143;28;19925;-58
2021/07/05 08:55:17;;;;;;;;;;;;;;;;;;5003647;28;19926;-60
2021/07/05 09:00:17;;;;;;;;;;;;;;;;;;5058561;28;2198;-53
2021/07/05 09:02:42;;;;;;;;;;;;;;;;;;5053197;28;2146;-54
2021/07/05 09:05:07;;;;;;;;;;;;;;;;;;5053848;28;2003;-53
2021/07/05 09:07:33;;;;;;;;;;;;;;;;;;5051611;28;2306;-54
2021/07/05 09:10:02;;;;;;;;;;;;;;;;;;5077800;28;9664;-54
2021/07/05 09:12:27;;;;;;;;;;;;;;;;;;5092576;28;2223;-53
2021/07/05 09:15:09;;;;;;;;;;;;;;;;;;5089688;28;2033;-52
2021/07/05 09:17:35;;;;;;;;;;;;;;;;;;5090882;28;2288;-58
2021/07/05 09:20:01;;;;;;;;;;;;;;;;;;5091070;28;2278;-59
2021/07/05 09:22:26;;;;;;;;;;;;;;;;;;5089992;28;1927;-51
2021/07/05 09:24:51;;;;;;;;;;;;;;;;;;5091329;28;1995;-54
2021/07/05 09:27:16;;;;;;;;;;;;;;;;;;5089117;28;1959;-50
2021/07/05 09:29:42;;;;;;;;;;;;;;;;;;5088932;28;1923;-50
2021/07/05 09:32:29;;;;;;;;;;;;;;;;;;5090140;28;2011;-52
2021/07/05 09:34:54;;;;;;;;;;;;;;;;;;5091429;28;1880;-49
2021/07/05 09:37:21;;;;;;;;;;;;;;;;;;5089063;28;3063;-53
2021/07/05 09:40:06;;;;;;;;;;;;;;;;;;5089906;28;1959;-54
2021/07/05 09:42:31;;;;;;;;;;;;;;;;;;5091404;28;1912;-51
2021/07/05 09:44:56;;;;;;;;;;;;;;;;;;5090190;28;1970;-53
2021/07/05 09:47:24;;;;;;;;;;;;;;;;;;5091859;28;2255;-54
2021/07/05 09:49:50;;;;;;;;;;;;;;;;;;5090364;28;1892;-55
2021/07/05 09:52:25;;;;;;;;;;;;;;;;;;5091149;28;2036;-53
2021/07/05 09:54:57;;;;;;;;;;;;;;;;;;5092016;28;1900;-56
2021/07/05 09:57:25;;;;;;;;;;;;;;;;;;5091290;28;1955;-55
2021/07/05 09:59:54;;;;;;;;;;;;;;;;;;5096685;28;1964;-55
2021/07/05 10:02:20;;;;;;;;;;;;;;;;;;5091898;28;2028;-54
2021/07/05 10:04:46;;;;;;;;;;;;;;;;;;5091033;28;1874;-53
2021/07/05 10:07:11;;;;;;;;;;;;;;;;;;5089117;28;1933;-54
2021/07/05 10:09:37;;;;;;;;;;;;;;;;;;5089385;28;2234;-49
2021/07/05 10:12:15;;;;;;;;;;;;;;;;;;5076354;28;1900;-49
2021/07/05 10:14:40;;;;;;;;;;;;;;;;;;5070481;28;9998;-55
2021/07/05 10:17:13;;;;;;;;;;;;;;;;;;5077555;28;2112;-52
2021/07/05 10:19:38;;;;;;;;;;;;;;;;;;5076106;28;2297;-54
2021/07/05 10:22:03;;;;;;;;;;;;;;;;;;5082242;28;1963;-53
2021/07/05 10:24:28;;;;;;;;;;;;;;;;;;5081443;28;2010;-53
2021/07/05 10:26:53;;;;;;;;;;;;;;;;;;5080004;28;2030;-54
2021/07/05 10:29:18;;;;;;;;;;;;;;;;;;5081286;28;2017;-53
2021/07/05 10:31:44;;;;;;;;;;;;;;;;;;5077943;28;2509;-54
2021/07/05 10:34:09;;;;;;;;;;;;;;;;;;5079404;28;2017;-55
2021/07/05 10:36:35;;;;;;;;;;;;;;;;;;5081690;28;10550;-54
2021/07/05 10:39:01;;;;;;;;;;;;;;;;;;5076685;28;2311;-56
2021/07/05 10:41:39;;;;;;;;;;;;;;;;;;5075539;28;2480;-57
2021/07/05 10:44:05;;;;;;;;;;;;;;;;;;5079152;28;2049;-58
2021/07/05 10:46:34;;;;;;;;;;;;;;;;;;5081332;28;2147;-59
2021/07/05 10:48:59;;;;;;;;;;;;;;;;;;5079345;28;2257;-58
2021/07/05 10:51:26;;;;;;;;;;;;;;;;;;5080695;28;3201;-59
2021/07/05 10:53:51;;;;;;;;;;;;;;;;;;5077669;28;2041;-57
2021/07/05 10:56:44;;;;;;;;;;;;;;;;;;5081933;28;2117;-59
2021/07/05 10:59:12;;;;;;;;;;;;;;;;;;5079511;28;2017;-57
2021/07/05 11:01:38;;;;;;;;;;;;;;;;;;5080327;28;1993;-59
2021/07/05 11:04:18;;;;;;;;;;;;;;;;;;5080250;28;2044;-57
2021/07/05 11:06:44;;;;;;;;;;;;;;;;;;5078609;28;2005;-56
2021/07/05 11:09:09;;;;;;;;;;;;;;;;;;5080707;28;2005;-58
2021/07/05 11:11:34;;;;;;;;;;;;;;;;;;5079812;28;2197;-59
2021/07/05 11:14:13;;;;;;;;;;;;;;;;;;5078460;28;2217;-57
2021/07/05 11:16:49;;;;;;;;;;;;;;;;;;5080312;28;2098;-58
2021/07/05 11:19:18;;;;;;;;;;;;;;;;;;5080197;28;1967;-59
2021/07/05 11:21:43;;;;;;;;;;;;;;;;;;5076175;28;2046;-56
2021/07/05 11:24:12;;;;;;;;;;;;;;;;;;5080869;28;2060;-60
2021/07/05 11:26:38;;;;;;;;;;;;;;;;;;5079562;28;2044;-57
2021/07/05 11:29:15;;;;;;;;;;;;;;;;;;5078872;28;3154;-55
2021/07/05 11:31:50;;;;;;;;;;;;;;;;;;5077221;28;2276;-59
2021/07/05 11:34:28;;;;;;;;;;;;;;;;;;5075273;28;2154;-59
2021/07/05 11:37:16;;;;;;;;;;;;;;;;;;5077790;28;2013;-57
2021/07/05 11:39:42;;;;;;;;;;;;;;;;;;5078013;28;2248;-60
2021/07/05 11:42:07;;;;;;;;;;;;;;;;;;5077213;28;2077;-61
2021/07/05 11:44:50;;;;;;;;;;;;;;;;;;5073895;28;2073;-59
2021/07/05 11:47:34;;;;;;;;;;;;;;;;;;5077867;28;2587;-60
2021/07/05 11:50:14;;;;;;;;;;;;;;;;;;5075348;28;2276;-59
2021/07/05 11:52:46;;;;;;;;;;;;;;;;;;5077426;28;2176;-60
2021/07/05 11:55:11;;;;;;;;;;;;;;;;;;5073158;28;1994;-60
2021/07/05 11:57:43;;;;;;;;;;;;;;;;;;5075562;28;2139;-61
2021/07/05 12:00:09;;;;;;;;;;;;;;;;;;5075632;28;2068;-59
2021/07/05 12:02:34;;;;;;;;;;;;;;;;;;5076683;28;2138;-59
2021/07/05 12:05:04;;;;;;;;;;;;;;;;;;5074714;28;2300;-59
2021/07/05 12:07:29;;;;;;;;;;;;;;;;;;5075824;28;3079;-60
2021/07/05 12:09:55;;;;;;;;;;;;;;;;;;5075974;28;2013;-59
2021/07/05 12:12:20;;;;;;;;;;;;;;;;;;5075846;28;2048;-60
2021/07/05 12:14:46;;;;;;;;;;;;;;;;;;5074267;28;2032;-60
2021/07/05 12:17:12;;;;;;;;;;;;;;;;;;5074350;28;2128;-60
2021/07/05 12:19:38;;;;;;;;;;;;;;;;;;5074145;28;2257;-60
2021/07/05 12:22:07;;;;;;;;;;;;;;;;;;5076040;28;2492;-61
2021/07/05 12:24:36;;;;;;;;;;;;;;;;;;5076144;28;2031;-60
2021/07/05 12:27:04;;;;;;;;;;;;;;;;;;5074305;28;2072;-60
2021/07/05 12:29:33;;;;;;;;;;;;;;;;;;5076100;28;2029;-58
2021/07/05 12:32:09;;;;;;;;;;;;;;;;;;5073823;28;2263;-60
2021/07/05 12:34:37;;;;;;;;;;;;;;;;;;5075810;28;2144;-61
2021/07/05 12:37:03;;;;;;;;;;;;;;;;;;5074581;28;2084;-61
2021/07/05 12:39:28;;;;;;;;;;;;;;;;;;5078503;28;2049;-60
2021/07/05 12:41:53;;;;;;;;;;;;;;;;;;5076613;28;2104;-58
2021/07/05 12:44:19;;;;;;;;;;;;;;;;;;5073499;28;3037;-61
2021/07/05 12:46:44;;;;;;;;;;;;;;;;;;5075915;28;2390;-60
2021/07/05 12:49:09;;;;;;;;;;;;;;;;;;5074535;28;2227;-60
2021/07/05 12:51:34;;;;;;;;;;;;;;;;;;5075130;28;2037;-58
2021/07/05 12:54:00;;;;;;;;;;;;;;;;;;5075609;28;2057;-58
2021/07/05 12:56:28;;;;;;;;;;;;;;;;;;5074717;28;2025;-56
2021/07/05 12:58:54;;;;;;;;;;;;;;;;;;5073984;28;2033;-56
2021/07/05 13:01:19;;;;;;;;;;;;;;;;;;5074339;28;2109;-59
2021/07/05 13:03:54;;;;;;;;;;;;;;;;;;5074065;28;2385;-58
2021/07/05 13:06:19;;;;;;;;;;;;;;;;;;5073736;28;2395;-58
2021/07/05 13:08:44;;;;;;;;;;;;;;;;;;5076743;28;2319;-59
2021/07/05 13:11:09;;;;;;;;;;;;;;;;;;5074274;28;2155;-58
2021/07/05 13:13:36;;;;;;;;;;;;;;;;;;5072465;28;1954;-60
2021/07/05 13:16:01;;;;;;;;;;;;;;;;;;5074282;28;2297;-58
2021/07/05 13:18:26;;;;;;;;;;;;;;;;;;5074905;28;2364;-60
2021/07/05 13:20:52;;;;;;;;;;;;;;;;;;5076008;28;2159;-59
2021/07/05 13:23:18;;;;;;;;;;;;;;;;;;5075088;28;2995;-57
2021/07/05 13:25:50;;;;;;;;;;;;;;;;;;5075018;28;2172;-59
2021/07/05 13:28:15;;;;;;;;;;;;;;;;;;5075901;28;2017;-59
2021/07/05 13:30:41;;;;;;;;;;;;;;;;;;5076922;28;2345;-57
2021/07/05 13:33:06;;;;;;;;;;;;;;;;;;5073441;28;2125;-58
2021/07/05 13:35:32;;;;;;;;;;;;;;;;;;5072769;28;2126;-57
2021/07/05 13:38:16;;;;;;;;;;;;;;;;;;5077011;27;2624;-52
2021/07/05 13:40:44;;;;;;;;;;;;;;;;;;5078055;28;2340;-50
2021/07/05 13:43:13;;;;;;;;;;;;;;;;;;5072141;28;2182;-52
2021/07/05 13:45:41;;;;;;;;;;;;;;;;;;5077441;28;2065;-52
2021/07/05 13:48:07;;;;;;;;;;;;;;;;;;5077542;28;2027;-51
2021/07/05 13:50:42;;;;;;;;;;;;;;;;;;5077898;28;2082;-51
2021/07/05 13:53:14;;;;;;;;;;;;;;;;;;5077276;28;2162;-53
2021/07/05 13:55:47;;;;;;;;;;;;;;;;;;5074558;28;2159;-51
2021/07/05 13:58:16;;;;;;;;;;;;;;;;;;5074933;28;2302;-52
2021/07/05 14:00:45;;;;;;;;;;;;;;;;;;5075495;28;2293;-51
2021/07/05 14:03:11;;;;;;;;;;;;;;;;;;5073986;28;2014;-52
2021/07/05 14:05:36;;;;;;;;;;;;;;;;;;5075988;28;2010;-50
2021/07/05 14:08:02;;;;;;;;;;;;;;;;;;5075689;28;2305;-50
2021/07/05 14:10:27;;;;;;;;;;;;;;;;;;5075234;28;2038;-51
2021/07/05 14:12:53;;;;;;;;;;;;;;;;;;5074233;28;2176;-51
2021/07/05 14:15:18;;;;;;;;;;;;;;;;;;5074306;28;3055;-51
2021/07/05 14:17:43;;;;;;;;;;;;;;;;;;5072264;28;2222;-50
2021/07/05 14:20:09;;;;;;;;;;;;;;;;;;5074437;28;2093;-49
2021/07/05 14:22:35;;;;;;;;;;;;;;;;;;5074643;28;2085;-50
2021/07/05 14:25:00;;;;;;;;;;;;;;;;;;5075414;28;2317;-50
2021/07/05 14:27:25;;;;;;;;;;;;;;;;;;5075530;28;2198;-49
2021/07/05 14:29:51;;;;;;;;;;;;;;;;;;5074538;28;2101;-49
2021/07/05 14:32:16;;;;;;;;;;;;;;;;;;5073988;28;2098;-48
2021/07/05 14:34:41;;;;;;;;;;;;;;;;;;5073859;28;2308;-47
2021/07/05 14:37:06;;;;;;;;;;;;;;;;;;5075344;28;2026;-47
2021/07/05 14:39:31;;;;;;;;;;;;;;;;;;5076564;28;1978;-48
2021/07/05 14:41:57;;;;;;;;;;;;;;;;;;5075291;28;2022;-48
2021/07/05 14:44:22;;;;;;;;;;;;;;;;;;5073813;28;2078;-48
2021/07/05 14:46:47;;;;;;;;;;;;;;;;;;5075919;28;2070;-48
2021/07/05 14:49:12;;;;;;;;;;;;;;;;;;5063522;28;2091;-49
2021/07/05 14:51:37;;;;;;;;;;;;;;;;;;5058174;28;3183;-45
2021/07/05 14:54:03;;;;;;;;;;;;;;;;;;5061974;28;2362;-48
2021/07/05 14:56:28;;;;;;;;;;;;;;;;;;5060535;28;2225;-47
2021/07/05 14:58:53;;;;;;;;;;;;;;;;;;5059791;28;2105;-51
2021/07/05 15:01:18;;;;;;;;;;;;;;;;;;5060306;28;2267;-49
2021/07/05 15:03:43;;;;;;;;;;;;;;;;;;5063019;28;2365;-57
2021/07/05 15:06:09;;;;;;;;;;;;;;;;;;5070648;28;2263;-53
2021/07/05 15:08:34;;;;;;;;;;;;;;;;;;5076160;28;2103;-53
2021/07/05 15:10:59;;;;;;;;;;;;;;;;;;5073024;28;2023;-53
2021/07/05 15:13:29;;;;;;;;;;;;;;;;;;5073850;28;2124;-53
2021/07/05 15:15:54;;;;;;;;;;;;;;;;;;5075308;28;1932;-54
2021/07/05 15:18:19;;;;;;;;;;;;;;;;;;5074200;28;1917;-53
2021/07/05 15:20:44;;;;;;;;;;;;;;;;;;5067296;28;2183;-52
2021/07/05 15:23:09;;;;;;;;;;;;;;;;;;5072289;28;1917;-53
2021/07/05 15:25:35;;;;;;;;;;;;;;;;;;5063390;28;2573;-54
2021/07/05 15:28:00;;;;;;;;;;;;;;;;;;5078510;28;2238;-54
2021/07/05 15:30:25;;;;;;;;;;;;;;;;;;5065483;28;2886;-53
2021/07/05 15:32:50;;;;;;;;;;;;;;;;;;5068856;28;2142;-55
2021/07/05 15:35:16;;;;;;;;;;;;;;;;;;5069997;28;1932;-52
2021/07/05 15:37:41;;;;;;;;;;;;;;;;;;5067845;28;1912;-55
2021/07/05 15:40:07;;;;;;;;;;;;;;;;;;5062563;28;2088;-53
2021/07/05 15:42:32;;;;;;;;;;;;;;;;;;5066404;28;1890;-53
2021/07/05 15:44:57;;;;;;;;;;;;;;;;;;5063018;28;1953;-54
2021/07/05 15:47:22;;;;;;;;;;;;;;;;;;5059915;28;1914;-53
2021/07/05 15:49:49;;;;;;;;;;;;;;;;;;5069661;28;1929;-53
2021/07/05 15:52:15;;;;;;;;;;;;;;;;;;5067736;28;2018;-53
2021/07/05 15:54:40;;;;;;;;;;;;;;;;;;5074626;28;2147;-52
2021/07/05 15:57:05;;;;;;;;;;;;;;;;;;5074353;28;2127;-53
2021/07/05 15:59:30;;;;;;;;;;;;;;;;;;5072249;28;1996;-52
2021/07/05 16:01:55;;;;;;;;;;;;;;;;;;5071979;28;2057;-52
2021/07/05 16:04:21;;;;;;;;;;;;;;;;;;5072303;28;1904;-53
2021/07/05 16:06:46;;;;;;;;;;;;;;;;;;5074091;28;2912;-53
2021/07/05 16:09:12;;;;;;;;;;;;;;;;;;5071328;28;2494;-53
2021/07/05 16:11:38;;;;;;;;;;;;;;;;;;5074698;28;1916;-53
2021/07/05 16:14:03;;;;;;;;;;;;;;;;;;5073862;28;1980;-52
2021/07/05 16:16:28;;;;;;;;;;;;;;;;;;5074082;28;2301;-52
2021/07/05 16:18:53;;;;;;;;;;;;;;;;;;5074145;28;1967;-55
2021/07/05 16:21:18;;;;;;;;;;;;;;;;;;5068992;28;1920;-52
2021/07/05 16:23:44;;;;;;;;;;;;;;;;;;5065092;28;2223;-54
2021/07/05 16:26:09;;;;;;;;;;;;;;;;;;5061166;28;1925;-53
2021/07/05 16:28:34;;;;;;;;;;;;;;;;;;5059921;28;1917;-53
2021/07/05 16:30:59;;;;;;;;;;;;;;;;;;5057935;28;1971;-53
2021/07/05 16:33:24;;;;;;;;;;;;;;;;;;5059799;28;2191;-55
2021/07/05 16:35:50;;;;;;;;;;;;;;;;;;5062092;28;1930;-54
2021/07/05 16:38:17;;;;;;;;;;;;;;;;;;5061814;28;2065;-53
2021/07/05 16:40:42;;;;;;;;;;;;;;;;;;5060595;28;2007;-53
2021/07/05 16:43:07;;;;;;;;;;;;;;;;;;5059550;28;2454;-53
2021/07/05 16:45:32;;;;;;;;;;;;;;;;;;5061725;28;3098;-55
2021/07/05 16:47:59;;;;;;;;;;;;;;;;;;5055608;28;1924;-55
2021/07/05 16:50:27;;;;;;;;;;;;;;;;;;5058953;28;2174;-52
2021/07/05 16:52:56;;;;;;;;;;;;;;;;;;5061192;28;1904;-54
2021/07/05 16:55:21;;;;;;;;;;;;;;;;;;5059711;28;1889;-54
2021/07/05 16:57:46;;;;;;;;;;;;;;;;;;5058982;28;2274;-53